Aberdeen Regional Airport
KABR : now visible

Airfield :











YOU CAN JOIN US ON...

 
LOGIN :

Register | Disclaimer

   EN    FR    IT 

 









Legend :    VFR   Marginal VFR   IFR   Intensive IFR   Very Intensive IFR
Visi :
Ceiling :
>= 8 km
>= 3000ft
5 to 8 km
1000 to 3000 ft
1500m to 5 km
500 to 1000 ft
800 to 1500m
200 to 500 ft
< 800m
< 200 ft
Symbols :   Thunderstorms  Fog  Heavy snow  Heavy precipitations  Wind > 20 kt







- Airport Elevation : 1302 ft
- IATA code : ABR


KABR - Aberdeen Regional

CURRENT METAR :
  • 191357Z AUTO 35010G65KT 1/2SM +TSRA FG BKN012 OVC065 23/22 A2963 RMK AO2 LTG DSNT ALQDS P0031 T02280217

EXPIRED METARs :
  • 191350Z AUTO 28036G68KT 1/4SM +TSRA FG SQ BKN006 OVC070 22/21 A2968 RMK AO2 PK WND 23068/1347 LTG DSNT ALQDS RAE09B40 TSB26 P0049
  • 191332Z AUTO 06008KT 10SM TS BKN070 OVC095 24/21 A2960 RMK AO2 LTG DSNT ALQDS RAE09 TSB26 PRESFR P0000 T02390211
  • 191318Z AUTO 05009KT 10SM VCTS BKN070 OVC090 24/21 A2963 RMK AO2 LTG DSNT ALQDS RAE09 P0000 T02440211
  • 191253Z AUTO 02016G23KT 10SM -RA FEW060 SCT090 BKN110 23/21 A2961 RMK AO2 LTG DSNT ALQDS RAB26 SLP016 P0000 T02330211
  • 191153Z AUTO 03005KT 10SM OVC100 23/21 A2963 RMK AO2 SLP020 T02330211 10244 20222 58001

TAF KABR
Valid from the 19 at 14:00 until the 20 at 12:00 UTC


191357Z 1914/2012 28014G40KT P6SM VCTS SCT080CB OVC200
TEMPO 1914/1915 VRB35G55KT 1SM +TSRA BKN010CB
FM191500 02010KT P6SM SCT050
FM192000 02015G23KT P6SM SCT100
FM200700 02006KT P6SM BKN090
KZMP FIR / North America



MET'MAP, your aeronautical weather chart ! - Copyright ORBIFLY December 2007 - Disclaimer

ORBIFLY MET'MAP TEAM :

Programming & Development : Alexandra Zaïnal
Concept & Development : Baudouin d'Aumeries
Co-Development & Prog : Marc-Olivier Méhu
Technical & hardware support : Manuel Goepfert

Contact : metmap@orbifly.com




SOURCES & CREDITS :

   NOAA       Earth
Advisory